Time,TemperatureF,DewpointF,PressureIn,WindDirection,WindDirectionDegrees,WindSpeedMPH,WindSpeedGustMPH,Humidity,HourlyPrecipIn,Conditions,Clouds,dailyrainin,SoftwareType,DateUTC
2014-01-06 00:01:00,32.2,30.6,29.34,NW,318,6.0,6.0,94,0.04,,,0.00,meteobridge,2014-01-06 05:01:00,
2014-01-06 00:03:00,32.0,30.6,29.34,NW,326,0.9,6.9,94,0.04,,,0.00,meteobridge,2014-01-06 05:03:00,
2014-01-06 00:04:00,31.8,30.4,29.34,WNW,292,2.0,6.9,94,0.04,,,0.00,meteobridge,2014-01-06 05:04:00,
2014-01-06 00:09:00,31.6,30.2,29.34,NNE,19,0.0,4.0,94,0.04,,,0.00,meteobridge,2014-01-06 05:09:00,
2014-01-06 00:14:00,31.5,30.0,29.34,NW,316,2.0,2.9,94,0.03,,,0.00,meteobridge,2014-01-06 05:14:00,
2014-01-06 00:19:00,31.3,29.8,29.35,NNE,15,2.0,4.9,94,0.03,,,0.00,meteobridge,2014-01-06 05:19:00,
2014-01-06 00:24:00,30.9,29.5,29.35,WNW,284,0.0,2.0,94,0.02,,,0.00,meteobridge,2014-01-06 05:24:00,
2014-01-06 00:29:00,30.7,29.3,29.35,NW,314,0.0,0.0,94,0.01,,,0.00,meteobridge,2014-01-06 05:29:00,
2014-01-06 00:34:00,30.6,29.1,29.32,NNW,346,0.0,0.9,94,0.01,,,0.00,meteobridge,2014-01-06 05:34:00,
2014-01-06 00:39:00,30.4,28.9,29.32,WNW,297,0.9,2.0,94,0.00,,,0.00,meteobridge,2014-01-06 05:39:00,
2014-01-06 00:45:00,30.4,28.9,29.35,WNW,283,0.9,2.0,94,0.00,,,0.00,meteobridge,2014-01-06 05:45:00,
2014-01-06 00:50:00,30.2,28.8,29.35,West,264,0.0,2.9,94,0.00,,,0.00,meteobridge,2014-01-06 05:50:00,
2014-01-06 00:55:00,30.0,28.6,29.35,NNW,328,2.0,4.9,94,0.00,,,0.00,meteobridge,2014-01-06 05:55:00,
2014-01-06 01:00:00,30.0,28.6,29.37,NW,306,0.9,2.0,94,0.00,,,0.00,meteobridge,2014-01-06 06:00:00,
2014-01-06 01:05:00,30.0,28.6,29.37,NW,317,0.9,4.0,94,0.00,,,0.00,meteobridge,2014-01-06 06:05:00,
2014-01-06 01:11:00,30.0,28.6,29.37,WNW,295,0.9,2.0,94,0.00,,,0.00,meteobridge,2014-01-06 06:11:00,
2014-01-06 01:16:00,30.0,28.6,29.38,West,266,0.9,2.0,94,0.00,,,0.00,meteobridge,2014-01-06 06:16:00,
2014-01-06 01:21:00,29.8,28.4,29.38,West,273,2.0,4.9,94,0.00,,,0.00,meteobridge,2014-01-06 06:21:00,
2014-01-06 01:26:00,29.5,28.0,29.38,West,281,2.0,4.0,94,0.00,,,0.00,meteobridge,2014-01-06 06:26:00,
2014-01-06 01:31:00,29.3,27.9,29.41,WSW,245,2.0,6.9,94,0.00,,,0.00,meteobridge,2014-01-06 06:31:00,
2014-01-06 01:36:00,28.9,27.5,29.41,West,270,2.0,4.9,94,0.00,,,0.00,meteobridge,2014-01-06 06:36:00,
2014-01-06 01:41:00,28.8,27.3,29.41,West,278,2.0,4.0,94,0.00,,,0.00,meteobridge,2014-01-06 06:41:00,
2014-01-06 01:46:00,28.2,26.8,29.43,NW,316,11.0,11.0,94,0.00,,,0.00,meteobridge,2014-01-06 06:46:00,
2014-01-06 01:51:00,27.3,25.5,29.43,WNW,288,4.9,8.9,93,0.00,,,0.00,meteobridge,2014-01-06 06:51:00,
2014-01-06 01:56:00,26.8,25.0,29.43,NW,306,2.0,6.9,93,0.00,,,0.00,meteobridge,2014-01-06 06:56:00,
2014-01-06 02:01:00,26.4,25.0,29.47,West,266,2.0,8.1,94,0.00,,,0.00,meteobridge,2014-01-06 07:01:00,
2014-01-06 02:06:00,26.1,24.3,29.47,NW,304,2.0,11.0,93,0.00,,,0.00,meteobridge,2014-01-06 07:06:00,
2014-01-06 02:11:00,25.7,23.9,29.47,NW,304,4.0,8.9,93,0.00,,,0.00,meteobridge,2014-01-06 07:11:00,
2014-01-06 02:16:00,25.2,23.4,29.47,NW,314,2.9,4.9,93,0.00,,,0.00,meteobridge,2014-01-06 07:16:00,
2014-01-06 02:21:00,25.0,23.2,29.47,WNW,300,4.9,11.0,93,0.00,,,0.00,meteobridge,2014-01-06 07:21:00,
2014-01-06 02:26:00,24.8,23.0,29.47,NW,314,2.9,4.9,93,0.00,,,0.00,meteobridge,2014-01-06 07:26:00,
2014-01-06 02:31:00,24.6,22.8,29.51,North,8,4.0,14.1,93,0.00,,,0.00,meteobridge,2014-01-06 07:31:00,
2014-01-06 02:36:00,24.4,22.6,29.51,NW,312,2.0,6.9,93,0.00,,,0.00,meteobridge,2014-01-06 07:36:00,
2014-01-06 02:41:00,24.3,22.5,29.51,SSW,208,4.0,4.0,93,0.00,,,0.00,meteobridge,2014-01-06 07:41:00,
2014-01-06 02:46:00,24.3,22.5,29.52,North,354,6.9,8.1,93,0.00,,,0.00,meteobridge,2014-01-06 07:46:00,
2014-01-06 02:51:00,23.9,22.1,29.52,NW,318,2.9,8.9,93,0.00,,,0.00,meteobridge,2014-01-06 07:51:00,
2014-01-06 02:56:00,23.5,21.7,29.52,NW,326,4.9,6.0,93,0.00,,,0.00,meteobridge,2014-01-06 07:56:00,
2014-01-06 03:01:00,23.4,21.6,29.56,West,270,2.9,6.0,93,0.00,,,0.00,meteobridge,2014-01-06 08:01:00,
2014-01-06 03:06:00,23.0,21.0,29.56,WSW,255,2.0,4.0,92,0.00,,,0.00,meteobridge,2014-01-06 08:06:00,
2014-01-06 03:11:00,22.6,20.7,29.56,West,273,4.9,10.1,92,0.00,,,0.00,meteobridge,2014-01-06 08:11:00,
2014-01-06 03:16:00,22.5,20.5,29.56,WNW,298,6.9,10.1,92,0.00,,,0.00,meteobridge,2014-01-06 08:16:00,
2014-01-06 03:21:00,22.3,20.3,29.56,WNW,290,4.9,4.9,92,0.00,,,0.00,meteobridge,2014-01-06 08:21:00,
2014-01-06 03:26:00,22.1,20.1,29.56,WNW,300,2.9,6.0,92,0.00,,,0.00,meteobridge,2014-01-06 08:26:00,
2014-01-06 03:31:00,22.1,20.1,29.58,WNW,285,0.9,6.0,92,0.00,,,0.00,meteobridge,2014-01-06 08:31:00,
2014-01-06 03:36:00,21.9,19.9,29.58,West,278,2.0,6.9,92,0.00,,,0.00,meteobridge,2014-01-06 08:36:00,
2014-01-06 03:41:00,21.7,19.8,29.58,West,274,2.0,4.9,92,0.00,,,0.00,meteobridge,2014-01-06 08:41:00,
2014-01-06 03:46:00,21.6,19.6,29.60,WNW,301,4.0,4.0,92,0.00,,,0.00,meteobridge,2014-01-06 08:46:00,
2014-01-06 03:51:00,21.4,19.4,29.60,NW,318,2.9,6.9,92,0.00,,,0.00,meteobridge,2014-01-06 08:51:00,
2014-01-06 03:56:00,21.4,19.4,29.60,NE,34,2.0,6.9,92,0.00,,,0.00,meteobridge,2014-01-06 08:56:00,
2014-01-06 04:01:00,21.2,19.2,29.61,WNW,290,0.9,2.9,92,0.00,,,0.00,meteobridge,2014-01-06 09:01:00,
2014-01-06 04:07:00,21.0,19.0,29.61,NW,326,2.0,6.9,92,0.00,,,0.00,meteobridge,2014-01-06 09:07:00,
2014-01-06 04:12:00,21.0,18.9,29.61,WNW,283,0.9,2.9,91,0.00,,,0.00,meteobridge,2014-01-06 09:12:00,
2014-01-06 04:17:00,21.0,19.0,29.62,WNW,284,2.9,4.0,92,0.00,,,0.00,meteobridge,2014-01-06 09:17:00,
2014-01-06 04:22:00,20.8,18.7,29.62,WNW,283,4.9,8.1,91,0.00,,,0.00,meteobridge,2014-01-06 09:22:00,
2014-01-06 04:27:00,20.5,18.3,29.62,NW,323,2.9,4.0,91,0.00,,,0.00,meteobridge,2014-01-06 09:27:00,
2014-01-06 04:32:00,20.3,18.1,29.64,NW,304,4.9,6.9,91,0.00,,,0.00,meteobridge,2014-01-06 09:32:00,
2014-01-06 04:37:00,20.1,18.0,29.64,NW,312,2.0,6.0,91,0.00,,,0.00,meteobridge,2014-01-06 09:37:00,
2014-01-06 04:42:00,19.9,17.8,29.64,NW,312,4.9,8.9,91,0.00,,,0.00,meteobridge,2014-01-06 09:42:00,
2014-01-06 04:47:00,19.8,17.6,29.65,WNW,301,4.9,8.9,91,0.00,,,0.00,meteobridge,2014-01-06 09:47:00,
2014-01-06 04:52:00,19.6,17.4,29.65,WSW,243,2.9,4.0,91,0.00,,,0.00,meteobridge,2014-01-06 09:52:00,
2014-01-06 04:57:00,19.4,17.2,29.65,NW,312,2.9,8.1,91,0.00,,,0.00,meteobridge,2014-01-06 09:57:00,
2014-01-06 05:02:00,19.2,17.1,29.67,NW,306,0.9,4.9,91,0.00,,,0.00,meteobridge,2014-01-06 10:02:00,
2014-01-06 05:07:00,19.2,17.1,29.67,WNW,301,0.9,6.0,91,0.00,,,0.00,meteobridge,2014-01-06 10:07:00,
2014-01-06 05:12:00,19.0,16.9,29.67,NW,307,2.0,6.0,91,0.00,,,0.00,meteobridge,2014-01-06 10:12:00,
2014-01-06 05:17:00,18.7,16.2,29.68,WNW,298,4.9,8.1,90,0.00,,,0.00,meteobridge,2014-01-06 10:17:00,
2014-01-06 05:22:00,18.5,16.0,29.68,West,274,2.0,4.0,90,0.00,,,0.00,meteobridge,2014-01-06 10:22:00,
2014-01-06 05:27:00,18.3,15.8,29.68,WNW,298,2.0,4.9,90,0.00,,,0.00,meteobridge,2014-01-06 10:27:00,
2014-01-06 05:32:00,18.3,15.8,29.70,West,264,2.9,4.0,90,0.00,,,0.00,meteobridge,2014-01-06 10:32:00,
2014-01-06 05:37:00,18.1,15.6,29.70,WNW,303,2.9,4.0,90,0.00,,,0.00,meteobridge,2014-01-06 10:37:00,
2014-01-06 05:42:00,18.1,15.6,29.70,West,269,0.9,2.0,90,0.00,,,0.00,meteobridge,2014-01-06 10:42:00,
2014-01-06 05:47:00,18.1,15.6,29.71,WNW,299,2.9,4.0,90,0.00,,,0.00,meteobridge,2014-01-06 10:47:00,
2014-01-06 05:52:00,18.1,15.6,29.71,WNW,301,4.0,6.0,90,0.00,,,0.00,meteobridge,2014-01-06 10:52:00,
2014-01-06 05:57:00,18.0,15.3,29.71,WNW,293,4.0,4.9,89,0.00,,,0.00,meteobridge,2014-01-06 10:57:00,
2014-01-06 06:02:00,18.0,15.4,29.72,WNW,289,0.0,4.0,90,0.00,,,0.00,meteobridge,2014-01-06 11:02:00,
2014-01-06 06:07:00,18.0,15.4,29.72,WSW,247,0.0,4.0,90,0.00,,,0.00,meteobridge,2014-01-06 11:07:00,
2014-01-06 06:12:00,17.8,15.3,29.72,WNW,283,2.0,4.0,90,0.00,,,0.00,meteobridge,2014-01-06 11:12:00,
2014-01-06 06:17:00,17.4,15.1,29.73,WSW,246,2.0,8.1,90,0.00,,,0.00,meteobridge,2014-01-06 11:17:00,
2014-01-06 06:22:00,17.4,15.1,29.73,NW,307,2.0,2.0,90,0.00,,,0.00,meteobridge,2014-01-06 11:22:00,
2014-01-06 06:28:00,17.2,14.9,29.73,WNW,288,0.9,2.0,90,0.00,,,0.00,meteobridge,2014-01-06 11:28:00,
2014-01-06 06:33:00,17.2,14.9,29.74,WNW,301,2.0,4.9,90,0.00,,,0.00,meteobridge,2014-01-06 11:33:00,
2014-01-06 06:38:00,17.1,14.7,29.74,WSW,255,0.9,2.0,90,0.00,,,0.00,meteobridge,2014-01-06 11:38:00,
2014-01-06 06:43:00,16.9,14.5,29.74,West,267,0.9,6.9,90,0.00,,,0.00,meteobridge,2014-01-06 11:43:00,
2014-01-06 06:48:00,16.9,14.5,29.75,SW,231,2.9,4.9,90,0.00,,,0.00,meteobridge,2014-01-06 11:48:00,
2014-01-06 06:53:00,16.7,14.4,29.75,WNW,288,4.0,4.0,90,0.00,,,0.00,meteobridge,2014-01-06 11:53:00,
2014-01-06 06:58:00,16.5,14.2,29.75,West,274,0.0,4.0,90,0.00,,,0.00,meteobridge,2014-01-06 11:58:00,
2014-01-06 07:03:00,16.5,14.2,29.76,WSW,255,2.0,6.9,90,0.00,,,0.00,meteobridge,2014-01-06 12:03:00,
2014-01-06 07:08:00,16.3,13.6,29.76,WNW,300,2.9,2.9,89,0.00,,,0.00,meteobridge,2014-01-06 12:08:00,
2014-01-06 07:13:00,16.2,13.5,29.76,NW,307,2.0,2.9,89,0.00,,,0.00,meteobridge,2014-01-06 12:13:00,
2014-01-06 07:18:00,16.2,13.5,29.77,WNW,295,0.9,4.9,89,0.00,,,0.00,meteobridge,2014-01-06 12:18:00,
2014-01-06 07:23:00,16.2,13.3,29.77,West,278,0.9,4.0,88,0.00,,,0.00,meteobridge,2014-01-06 12:23:00,
2014-01-06 07:28:00,16.0,13.1,29.77,SW,215,0.9,8.9,88,0.00,,,0.00,meteobridge,2014-01-06 12:28:00,
2014-01-06 07:33:00,15.8,12.9,29.77,WSW,244,0.9,2.9,88,0.00,,,0.00,meteobridge,2014-01-06 12:33:00,
2014-01-06 07:38:00,15.8,12.9,29.77,NW,323,0.0,2.9,88,0.00,,,0.00,meteobridge,2014-01-06 12:38:00,
2014-01-06 07:43:00,15.6,12.7,29.77,SSW,205,4.0,4.0,88,0.00,,,0.00,meteobridge,2014-01-06 12:43:00,
2014-01-06 07:48:00,15.8,12.6,29.78,SSW,201,0.9,2.9,87,0.00,,,0.00,meteobridge,2014-01-06 12:48:00,
2014-01-06 07:53:00,15.8,12.6,29.78,SW,235,2.0,8.9,87,0.00,,,0.00,meteobridge,2014-01-06 12:53:00,
2014-01-06 07:58:00,15.6,12.4,29.78,SSE,152,2.0,2.9,87,0.00,,,0.00,meteobridge,2014-01-06 12:58:00,
2014-01-06 08:03:00,15.6,12.4,29.79,SW,215,0.9,2.9,87,0.00,,,0.00,meteobridge,2014-01-06 13:03:00,
2014-01-06 08:08:00,15.6,12.4,29.79,WNW,303,2.0,4.9,87,0.00,,,0.00,meteobridge,2014-01-06 13:08:00,
2014-01-06 08:13:00,15.6,12.4,29.79,WNW,283,2.9,4.0,87,0.00,,,0.00,meteobridge,2014-01-06 13:13:00,
2014-01-06 08:18:00,15.6,12.4,29.80,West,265,4.9,4.9,87,0.00,,,0.00,meteobridge,2014-01-06 13:18:00,
2014-01-06 08:23:00,15.6,12.2,29.80,WSW,255,4.0,4.9,86,0.00,,,0.00,meteobridge,2014-01-06 13:23:00,
2014-01-06 08:28:00,15.4,12.0,29.80,NW,311,2.0,4.0,86,0.00,,,0.00,meteobridge,2014-01-06 13:28:00,
2014-01-06 08:33:00,15.4,12.0,29.81,West,278,4.0,6.0,86,0.00,,,0.00,meteobridge,2014-01-06 13:33:00,
2014-01-06 08:38:00,15.3,11.8,29.81,WNW,298,0.9,4.9,86,0.00,,,0.00,meteobridge,2014-01-06 13:38:00,
2014-01-06 08:43:00,15.1,11.7,29.81,NNW,334,0.9,2.9,86,0.00,,,0.00,meteobridge,2014-01-06 13:43:00,
2014-01-06 08:48:00,14.5,10.9,29.83,West,267,0.9,4.0,85,0.00,,,0.00,meteobridge,2014-01-06 13:48:00,
2014-01-06 08:53:00,14.0,10.4,29.83,SSW,200,0.9,4.9,85,0.00,,,0.00,meteobridge,2014-01-06 13:53:00,
2014-01-06 08:58:00,13.6,10.2,29.83,West,276,2.0,4.9,86,0.00,,,0.00,meteobridge,2014-01-06 13:58:00,
2014-01-06 09:03:00,13.1,9.5,29.84,WNW,293,4.9,8.9,85,0.00,,,0.00,meteobridge,2014-01-06 14:03:00,
2014-01-06 09:05:00,12.9,9.3,29.84,WSW,245,2.9,6.9,85,0.00,,,0.00,meteobridge,2014-01-06 14:05:00,
2014-01-06 09:10:00,12.0,8.1,29.84,SW,236,2.0,4.0,84,0.00,,,0.00,meteobridge,2014-01-06 14:10:00,
2014-01-06 09:15:00,11.5,7.3,29.85,West,267,4.9,6.0,83,0.00,,,0.00,meteobridge,2014-01-06 14:15:00,
2014-01-06 09:20:00,11.1,7.2,29.85,WSW,254,2.0,2.9,84,0.00,,,0.00,meteobridge,2014-01-06 14:20:00,
2014-01-06 09:25:00,10.6,6.4,29.85,WNW,296,8.1,8.1,83,0.00,,,0.00,meteobridge,2014-01-06 14:25:00,
2014-01-06 09:30:00,10.0,5.9,29.86,SSW,210,2.0,2.0,83,0.00,,,0.00,meteobridge,2014-01-06 14:30:00,
2014-01-06 09:35:00,9.3,5.0,29.86,WNW,293,2.0,10.1,82,0.00,,,0.00,meteobridge,2014-01-06 14:35:00,
2014-01-06 09:40:00,8.8,4.1,29.86,NW,323,2.0,14.1,81,0.00,,,0.00,meteobridge,2014-01-06 14:40:00,
2014-01-06 09:45:00,8.4,3.7,29.87,WNW,283,4.0,6.0,81,0.00,,,0.00,meteobridge,2014-01-06 14:45:00,
2014-01-06 09:50:00,8.1,3.4,29.87,SW,218,0.9,8.1,81,0.00,,,0.00,meteobridge,2014-01-06 14:50:00,
2014-01-06 09:55:00,7.5,2.7,29.87,WNW,302,4.0,11.0,80,0.00,,,0.00,meteobridge,2014-01-06 14:55:00,
2014-01-06 10:00:00,7.0,2.1,29.87,SSW,195,4.0,10.1,80,0.00,,,0.00,meteobridge,2014-01-06 15:00:00,
2014-01-06 10:05:00,6.6,2.1,29.87,SW,231,0.9,6.0,81,0.00,,,0.00,meteobridge,2014-01-06 15:05:00,
2014-01-06 10:10:00,6.4,1.9,29.87,SW,235,6.0,8.1,81,0.00,,,0.00,meteobridge,2014-01-06 15:10:00,
2014-01-06 10:15:00,6.3,1.8,29.88,SSW,195,2.9,8.1,81,0.00,,,0.00,meteobridge,2014-01-06 15:15:00,
2014-01-06 10:20:00,6.1,1.8,29.88,WSW,253,6.0,6.0,82,0.00,,,0.00,meteobridge,2014-01-06 15:20:00,
2014-01-06 10:25:00,5.7,1.2,29.88,WSW,252,4.0,6.0,81,0.00,,,0.00,meteobridge,2014-01-06 15:25:00,
2014-01-06 10:30:00,5.5,1.0,29.89,SW,221,4.0,6.9,81,0.00,,,0.00,meteobridge,2014-01-06 15:30:00,
2014-01-06 10:36:00,5.5,1.0,29.89,SW,226,8.9,8.9,81,0.00,,,0.00,meteobridge,2014-01-06 15:36:00,
2014-01-06 10:41:00,5.4,0.9,29.89,SW,232,4.9,6.0,81,0.00,,,0.00,meteobridge,2014-01-06 15:41:00,
2014-01-06 10:46:00,5.2,0.3,29.89,WNW,296,2.0,8.9,80,0.00,,,0.00,meteobridge,2014-01-06 15:46:00,
2014-01-06 10:51:00,5.4,0.9,29.89,SSW,210,4.0,6.9,81,0.00,,,0.00,meteobridge,2014-01-06 15:51:00,
2014-01-06 10:56:00,5.4,0.9,29.89,WSW,250,0.9,2.9,81,0.00,,,0.00,meteobridge,2014-01-06 15:56:00,
2014-01-06 11:01:00,5.4,0.9,29.89,SW,225,2.9,6.9,81,0.00,,,0.00,meteobridge,2014-01-06 16:01:00,
2014-01-06 11:06:00,5.2,0.3,29.89,WNW,290,2.0,8.9,80,0.00,,,0.00,meteobridge,2014-01-06 16:06:00,
2014-01-06 11:11:00,4.8,-0.2,29.89,WSW,245,4.9,8.9,79,0.00,,,0.00,meteobridge,2014-01-06 16:11:00,
2014-01-06 11:16:00,4.8,-0.2,29.89,NW,308,2.0,8.1,79,0.00,,,0.00,meteobridge,2014-01-06 16:16:00,
2014-01-06 11:21:00,4.8,-0.2,29.89,WNW,294,4.9,4.9,79,0.00,,,0.00,meteobridge,2014-01-06 16:21:00,
2014-01-06 11:26:00,4.8,-0.6,29.89,South,173,0.9,4.0,78,0.00,,,0.00,meteobridge,2014-01-06 16:26:00,
2014-01-06 11:31:00,4.6,-0.9,29.89,WSW,250,6.0,12.1,77,0.00,,,0.00,meteobridge,2014-01-06 16:31:00,
2014-01-06 11:36:00,4.1,-1.5,29.89,WSW,240,4.0,12.1,77,0.00,,,0.00,meteobridge,2014-01-06 16:36:00,
2014-01-06 11:41:00,3.6,-1.8,29.89,WSW,252,0.0,8.9,78,0.00,,,0.00,meteobridge,2014-01-06 16:41:00,
2014-01-06 11:46:00,3.2,-2.0,29.90,West,274,0.9,15.0,78,0.00,,,0.00,meteobridge,2014-01-06 16:46:00,
2014-01-06 11:51:00,3.2,-2.4,29.90,West,261,0.9,2.0,77,0.00,,,0.00,meteobridge,2014-01-06 16:51:00,
2014-01-06 11:56:00,3.6,-1.8,29.90,West,260,4.9,4.9,78,0.00,,,0.00,meteobridge,2014-01-06 16:56:00,
2014-01-06 12:01:00,2.8,-2.9,29.90,SW,221,4.0,8.9,76,0.00,,,0.00,meteobridge,2014-01-06 17:01:00,
2014-01-06 12:06:00,1.9,-4.4,29.90,NE,39,6.0,11.0,74,0.00,,,0.00,meteobridge,2014-01-06 17:06:00,
2014-01-06 12:11:00,1.8,-4.4,29.90,WSW,243,4.0,6.0,75,0.00,,,0.00,meteobridge,2014-01-06 17:11:00,
2014-01-06 12:16:00,1.8,-4.0,29.90,North,351,2.0,4.0,76,0.00,,,0.00,meteobridge,2014-01-06 17:16:00,
2014-01-06 12:21:00,1.8,-4.0,29.90,WSW,243,4.9,10.1,76,0.00,,,0.00,meteobridge,2014-01-06 17:21:00,
2014-01-06 12:26:00,1.8,-4.4,29.90,West,265,0.9,4.0,75,0.00,,,0.00,meteobridge,2014-01-06 17:26:00,
2014-01-06 12:31:00,1.9,-4.4,29.90,West,274,4.0,14.1,74,0.00,,,0.00,meteobridge,2014-01-06 17:31:00,
2014-01-06 12:37:00,2.1,-4.5,29.90,WNW,295,4.0,10.1,73,0.00,,,0.00,meteobridge,2014-01-06 17:37:00,
2014-01-06 12:42:00,1.4,-5.3,29.90,SW,228,6.0,14.1,73,0.00,,,0.00,meteobridge,2014-01-06 17:42:00,
2014-01-06 12:47:00,1.0,-5.8,29.91,WSW,238,2.9,10.1,72,0.00,,,0.00,meteobridge,2014-01-06 17:47:00,
2014-01-06 12:52:00,1.0,-5.8,29.91,WSW,238,2.0,10.1,72,0.00,,,0.00,meteobridge,2014-01-06 17:52:00,
2014-01-06 12:57:00,1.2,-5.6,29.91,SW,228,4.0,6.9,72,0.00,,,0.00,meteobridge,2014-01-06 17:57:00,
2014-01-06 13:02:00,1.8,-5.3,29.91,WNW,284,4.0,11.0,72,0.00,,,0.00,meteobridge,2014-01-06 18:02:00,
2014-01-06 13:07:00,0.9,-6.7,29.91,South,173,6.9,8.9,70,0.00,,,0.00,meteobridge,2014-01-06 18:07:00,
2014-01-06 13:12:00,0.3,-7.1,29.91,SSW,198,0.9,10.1,70,0.00,,,0.00,meteobridge,2014-01-06 18:12:00,
2014-01-06 13:17:00,0.7,-6.5,29.91,NNW,328,4.0,8.9,71,0.00,,,0.00,meteobridge,2014-01-06 18:17:00,
2014-01-06 13:22:00,0.9,-6.3,29.91,West,277,6.0,10.1,71,0.00,,,0.00,meteobridge,2014-01-06 18:22:00,
2014-01-06 13:27:00,0.1,-7.2,29.91,SSW,210,4.9,14.1,70,0.00,,,0.00,meteobridge,2014-01-06 18:27:00,
2014-01-06 13:32:00,-0.6,-8.0,29.91,WNW,291,2.9,13.0,70,0.00,,,0.00,meteobridge,2014-01-06 18:32:00,
2014-01-06 13:37:00,-0.8,-8.0,29.91,WSW,242,4.9,6.9,71,0.00,,,0.00,meteobridge,2014-01-06 18:37:00,
2014-01-06 13:42:00,-0.4,-7.2,29.91,WNW,294,4.9,4.9,72,0.00,,,0.00,meteobridge,2014-01-06 18:42:00,
2014-01-06 13:47:00,-0.2,-7.4,29.92,West,274,2.9,12.1,71,0.00,,,0.00,meteobridge,2014-01-06 18:47:00,
2014-01-06 13:52:00,-0.2,-7.1,29.92,West,281,6.9,8.1,72,0.00,,,0.00,meteobridge,2014-01-06 18:52:00,
2014-01-06 13:57:00,-0.2,-7.1,29.92,NW,311,12.1,12.1,72,0.00,,,0.00,meteobridge,2014-01-06 18:57:00,
2014-01-06 14:02:00,-0.6,-7.8,29.92,West,278,4.9,13.0,71,0.00,,,0.00,meteobridge,2014-01-06 19:02:00,
2014-01-06 14:07:00,-0.8,-8.1,29.92,West,263,2.9,10.1,70,0.00,,,0.00,meteobridge,2014-01-06 19:07:00,
2014-01-06 14:12:00,-0.6,-8.0,29.92,WSW,245,2.0,8.1,70,0.00,,,0.00,meteobridge,2014-01-06 19:12:00,
2014-01-06 14:17:00,-0.8,-8.1,29.93,WNW,285,4.9,4.9,70,0.00,,,0.00,meteobridge,2014-01-06 19:17:00,
2014-01-06 14:22:00,-0.4,-7.6,29.93,WSW,242,2.0,8.1,71,0.00,,,0.00,meteobridge,2014-01-06 19:22:00,
2014-01-06 14:27:00,-0.4,-7.8,29.93,NW,304,4.9,8.1,70,0.00,,,0.00,meteobridge,2014-01-06 19:27:00,
2014-01-06 14:32:00,-0.2,-7.6,29.93,WNW,301,4.9,6.9,70,0.00,,,0.00,meteobridge,2014-01-06 19:32:00,
2014-01-06 14:37:00,-0.8,-8.5,29.93,SW,218,12.1,15.0,69,0.00,,,0.00,meteobridge,2014-01-06 19:37:00,
2014-01-06 14:42:00,-0.9,-8.7,29.93,NNW,330,0.9,6.9,69,0.00,,,0.00,meteobridge,2014-01-06 19:42:00,
2014-01-06 14:47:00,-1.3,-9.2,29.94,NW,312,4.9,8.9,68,0.00,,,0.00,meteobridge,2014-01-06 19:47:00,
2014-01-06 14:52:00,-1.3,-9.0,29.94,NW,315,4.0,15.0,69,0.00,,,0.00,meteobridge,2014-01-06 19:52:00,
2014-01-06 14:57:00,-1.3,-9.0,29.94,WNW,283,4.9,6.0,69,0.00,,,0.00,meteobridge,2014-01-06 19:57:00,
2014-01-06 15:02:00,-1.1,-8.9,29.96,SSW,211,4.0,6.0,69,0.00,,,0.00,meteobridge,2014-01-06 20:02:00,
2014-01-06 15:07:00,-0.9,-8.9,29.96,SW,218,2.9,6.9,68,0.00,,,0.00,meteobridge,2014-01-06 20:07:00,
2014-01-06 15:12:00,-1.1,-9.4,29.96,WNW,294,4.9,6.9,67,0.00,,,0.00,meteobridge,2014-01-06 20:12:00,
2014-01-06 15:17:00,-1.1,-9.8,29.97,WSW,245,0.9,4.9,66,0.00,,,0.00,meteobridge,2014-01-06 20:17:00,
2014-01-06 15:22:00,-1.1,-9.8,29.97,SSW,212,2.9,11.0,66,0.00,,,0.00,meteobridge,2014-01-06 20:22:00,
2014-01-06 15:28:00,-1.7,-10.8,29.97,NNW,347,4.9,10.1,64,0.00,,,0.00,meteobridge,2014-01-06 20:28:00,
2014-01-06 15:33:00,-2.2,-11.0,29.98,WSW,239,2.0,11.0,65,0.00,,,0.00,meteobridge,2014-01-06 20:33:00,
2014-01-06 15:38:00,-2.4,-11.2,29.98,NW,304,2.0,6.0,65,0.00,,,0.00,meteobridge,2014-01-06 20:38:00,
2014-01-06 15:43:00,-2.2,-10.8,29.98,West,259,11.0,11.0,66,0.00,,,0.00,meteobridge,2014-01-06 20:43:00,
2014-01-06 15:48:00,-2.6,-11.4,29.98,WSW,248,4.0,10.1,65,0.00,,,0.00,meteobridge,2014-01-06 20:48:00,
2014-01-06 15:53:00,-2.9,-11.7,29.98,SW,235,6.0,13.0,65,0.00,,,0.00,meteobridge,2014-01-06 20:53:00,
2014-01-06 15:58:00,-3.1,-11.6,29.98,WSW,239,2.9,8.1,66,0.00,,,0.00,meteobridge,2014-01-06 20:58:00,
2014-01-06 16:03:00,-3.5,-11.7,29.99,West,260,6.0,11.0,67,0.00,,,0.00,meteobridge,2014-01-06 21:03:00,
2014-01-06 16:08:00,-4.2,-12.6,29.99,WSW,238,2.0,8.9,66,0.00,,,0.00,meteobridge,2014-01-06 21:08:00,
2014-01-06 16:13:00,-4.4,-12.5,29.99,SW,224,2.9,8.1,67,0.00,,,0.00,meteobridge,2014-01-06 21:13:00,
2014-01-06 16:18:00,-4.5,-12.5,30.00,NW,315,2.9,14.1,68,0.00,,,0.00,meteobridge,2014-01-06 21:18:00,
2014-01-06 16:23:00,-4.9,-12.8,30.00,SW,235,11.0,11.0,68,0.00,,,0.00,meteobridge,2014-01-06 21:23:00,
2014-01-06 16:28:00,-5.1,-13.0,30.00,WSW,250,4.0,15.0,68,0.00,,,0.00,meteobridge,2014-01-06 21:28:00,
2014-01-06 16:33:00,-5.1,-13.0,30.02,SW,231,2.0,2.0,68,0.00,,,0.00,meteobridge,2014-01-06 21:33:00,
2014-01-06 16:39:00,-5.3,-12.8,30.02,SW,231,2.0,-999.0,69,0.00,,,0.00,meteobridge,2014-01-06 21:39:00,
2014-01-06 16:44:00,-5.6,-13.4,30.02,NW,312,4.0,10.1,68,0.00,,,0.00,meteobridge,2014-01-06 21:44:00,
2014-01-06 16:49:00,-6.0,-13.7,30.02,WSW,246,0.9,10.1,68,0.00,,,0.00,meteobridge,2014-01-06 21:49:00,
2014-01-06 16:54:00,-6.0,-13.5,30.02,WSW,237,14.1,17.9,69,0.00,,,0.00,meteobridge,2014-01-06 21:54:00,
2014-01-06 16:59:00,-6.3,-13.9,30.02,SW,235,2.9,8.1,69,0.00,,,0.00,meteobridge,2014-01-06 21:59:00,
2014-01-06 17:04:00,-6.7,-14.3,30.03,WSW,240,2.9,8.9,69,0.00,,,0.00,meteobridge,2014-01-06 22:04:00,
2014-01-06 17:09:00,-7.1,-14.6,30.03,NW,308,4.9,8.9,69,0.00,,,0.00,meteobridge,2014-01-06 22:09:00,
2014-01-06 17:14:00,-7.1,-14.3,30.03,SW,214,6.9,8.1,70,0.00,,,0.00,meteobridge,2014-01-06 22:14:00,
2014-01-06 17:19:00,-7.2,-14.1,30.04,South,191,6.0,10.1,71,0.00,,,0.00,meteobridge,2014-01-06 22:19:00,
2014-01-06 17:24:00,-7.4,-14.1,30.04,WSW,248,4.0,12.1,72,0.00,,,0.00,meteobridge,2014-01-06 22:24:00,
2014-01-06 17:29:00,-7.4,-14.1,30.04,West,280,4.9,8.9,72,0.00,,,0.00,meteobridge,2014-01-06 22:29:00,
2014-01-06 17:34:00,-7.8,-14.4,30.05,West,268,2.9,8.1,72,0.00,,,0.00,meteobridge,2014-01-06 22:34:00,
2014-01-06 17:39:00,-8.0,-14.6,30.05,West,271,4.0,10.1,72,0.00,,,0.00,meteobridge,2014-01-06 22:39:00,
2014-01-06 17:44:00,-8.0,-14.6,30.05,West,269,0.9,8.9,72,0.00,,,0.00,meteobridge,2014-01-06 22:44:00,
2014-01-06 17:49:00,-8.1,-14.4,30.06,WNW,303,2.9,10.1,73,0.00,,,0.00,meteobridge,2014-01-06 22:49:00,
2014-01-06 17:54:00,-8.1,-14.4,30.06,NW,314,2.9,8.1,73,0.00,,,0.00,meteobridge,2014-01-06 22:54:00,
2014-01-06 17:59:00,-8.1,-14.3,30.06,SW,218,4.0,6.0,74,0.00,,,0.00,meteobridge,2014-01-06 22:59:00,
2014-01-06 18:04:00,-8.3,-14.4,30.07,NW,321,2.0,10.1,74,0.00,,,0.00,meteobridge,2014-01-06 23:04:00,
2014-01-06 18:09:00,-8.3,-14.4,30.07,West,278,4.0,16.1,74,0.00,,,0.00,meteobridge,2014-01-06 23:09:00,
2014-01-06 18:14:00,-8.7,-15.0,30.07,NNW,341,4.0,8.1,73,0.00,,,0.00,meteobridge,2014-01-06 23:14:00,
2014-01-06 18:19:00,-9.0,-15.5,30.07,SW,222,8.1,12.1,72,0.00,,,0.00,meteobridge,2014-01-06 23:19:00,
2014-01-06 18:24:00,-9.0,-15.5,30.07,WSW,245,8.9,14.1,72,0.00,,,0.00,meteobridge,2014-01-06 23:24:00,
2014-01-06 18:29:00,-9.2,-15.7,30.07,West,267,4.0,6.9,72,0.00,,,0.00,meteobridge,2014-01-06 23:29:00,
2014-01-06 18:35:00,-9.4,-15.7,30.09,SSW,198,4.0,6.0,73,0.00,,,0.00,meteobridge,2014-01-06 23:35:00,
2014-01-06 18:40:00,-9.6,-15.9,30.09,West,271,2.9,8.9,73,0.00,,,0.00,meteobridge,2014-01-06 23:40:00,
2014-01-06 18:45:00,-9.6,-15.9,30.09,West,278,2.9,6.9,73,0.00,,,0.00,meteobridge,2014-01-06 23:45:00,
2014-01-06 18:50:00,-9.8,-16.1,30.09,West,261,0.9,12.1,73,0.00,,,0.00,meteobridge,2014-01-06 23:50:00,
2014-01-06 18:55:00,-9.8,-16.1,30.09,NNW,330,2.9,4.0,73,0.00,,,0.00,meteobridge,2014-01-06 23:55:00,
2014-01-06 19:00:00,-9.9,-16.2,30.11,West,277,2.9,8.1,73,0.00,,,0.00,meteobridge,2014-01-07 00:00:00,
2014-01-06 19:05:00,-9.9,-16.2,30.11,WSW,249,6.9,14.1,73,0.00,,,0.00,meteobridge,2014-01-07 00:05:00,
2014-01-06 19:10:00,-10.1,-16.1,30.11,WSW,248,4.0,6.0,74,0.00,,,0.00,meteobridge,2014-01-07 00:10:00,
2014-01-06 19:15:00,-10.1,-16.1,30.11,West,280,4.0,6.0,74,0.00,,,0.00,meteobridge,2014-01-07 00:15:00,
2014-01-06 19:20:00,-10.3,-16.2,30.11,West,269,8.1,13.0,74,0.00,,,0.00,meteobridge,2014-01-07 00:20:00,
2014-01-06 19:25:00,-10.3,-16.2,30.11,SW,229,6.9,12.1,74,0.00,,,0.00,meteobridge,2014-01-07 00:25:00,
2014-01-06 19:30:00,-10.5,-16.8,30.12,SSE,147,4.9,12.1,73,0.00,,,0.00,meteobridge,2014-01-07 00:30:00,
2014-01-06 19:35:00,-10.7,-17.1,30.12,West,281,4.9,8.1,72,0.00,,,0.00,meteobridge,2014-01-07 00:35:00,
2014-01-06 19:40:00,-10.8,-17.7,30.12,West,278,2.0,8.9,71,0.00,,,0.00,meteobridge,2014-01-07 00:40:00,
2014-01-06 19:45:00,-11.0,-17.9,30.13,SSW,213,4.0,8.1,71,0.00,,,0.00,meteobridge,2014-01-07 00:45:00,
2014-01-06 19:50:00,-11.2,-17.7,30.13,SSW,207,2.0,12.1,72,0.00,,,0.00,meteobridge,2014-01-07 00:50:00,
2014-01-06 19:55:00,-11.2,-17.7,30.13,West,260,4.0,4.0,72,0.00,,,0.00,meteobridge,2014-01-07 00:55:00,
2014-01-06 20:00:00,-11.4,-17.7,30.14,WNW,283,6.9,12.1,73,0.00,,,0.00,meteobridge,2014-01-07 01:00:00,
2014-01-06 20:05:00,-11.4,-17.7,30.14,SW,214,4.9,13.0,73,0.00,,,0.00,meteobridge,2014-01-07 01:05:00,
2014-01-06 20:10:00,-11.4,-17.9,30.14,West,261,4.9,8.9,72,0.00,,,0.00,meteobridge,2014-01-07 01:10:00,
2014-01-06 20:15:00,-11.6,-18.0,30.15,WSW,258,6.0,10.1,72,0.00,,,0.00,meteobridge,2014-01-07 01:15:00,
2014-01-06 20:20:00,-11.7,-18.6,30.15,WSW,248,0.9,8.9,71,0.00,,,0.00,meteobridge,2014-01-07 01:20:00,
2014-01-06 20:25:00,-11.7,-18.2,30.15,SW,226,2.9,8.1,72,0.00,,,0.00,meteobridge,2014-01-07 01:25:00,
2014-01-06 20:31:00,-11.7,-18.2,30.16,NW,309,2.9,6.0,72,0.00,,,0.00,meteobridge,2014-01-07 01:31:00,
2014-01-06 20:36:00,-11.9,-18.6,30.16,WNW,287,0.9,8.9,71,0.00,,,0.00,meteobridge,2014-01-07 01:36:00,
2014-01-06 20:41:00,-11.9,-18.4,30.16,WNW,297,2.0,15.0,72,0.00,,,0.00,meteobridge,2014-01-07 01:41:00,
2014-01-06 20:46:00,-11.9,-18.4,30.16,ESE,115,2.9,8.1,72,0.00,,,0.00,meteobridge,2014-01-07 01:46:00,
2014-01-06 20:51:00,-12.1,-18.6,30.16,WSW,245,2.9,12.1,72,0.00,,,0.00,meteobridge,2014-01-07 01:51:00,
2014-01-06 20:56:00,-12.3,-18.9,30.16,West,273,2.9,8.9,71,0.00,,,0.00,meteobridge,2014-01-07 01:56:00,
2014-01-06 21:01:00,-12.3,-18.9,30.16,West,269,4.0,15.0,71,0.00,,,0.00,meteobridge,2014-01-07 02:01:00,
2014-01-06 21:06:00,-12.3,-18.9,30.16,WSW,255,2.0,8.9,71,0.00,,,0.00,meteobridge,2014-01-07 02:06:00,
2014-01-06 21:11:00,-12.3,-18.9,30.16,SSW,212,4.0,6.9,71,0.00,,,0.00,meteobridge,2014-01-07 02:11:00,
2014-01-06 21:16:00,-12.3,-18.9,30.17,WNW,291,2.9,8.9,71,0.00,,,0.00,meteobridge,2014-01-07 02:16:00,
2014-01-06 21:21:00,-12.5,-19.1,30.17,SSW,196,2.0,8.1,71,0.00,,,0.00,meteobridge,2014-01-07 02:21:00,
2014-01-06 21:26:00,-12.5,-19.1,30.17,SW,228,2.9,6.9,71,0.00,,,0.00,meteobridge,2014-01-07 02:26:00,
2014-01-06 21:31:00,-12.5,-19.1,30.18,SW,231,6.0,6.0,71,0.00,,,0.00,meteobridge,2014-01-07 02:31:00,
2014-01-06 21:36:00,-12.5,-19.1,30.18,SW,224,4.0,12.1,71,0.00,,,0.00,meteobridge,2014-01-07 02:36:00,
2014-01-06 21:41:00,-12.5,-19.1,30.18,West,263,2.0,8.1,71,0.00,,,0.00,meteobridge,2014-01-07 02:41:00,
2014-01-06 21:46:00,-12.6,-19.3,30.18,West,269,2.0,6.9,71,0.00,,,0.00,meteobridge,2014-01-07 02:46:00,
2014-01-06 21:51:00,-12.6,-19.3,30.18,SE,146,2.0,11.0,71,0.00,,,0.00,meteobridge,2014-01-07 02:51:00,
2014-01-06 21:56:00,-12.6,-19.3,30.18,WSW,246,4.0,13.0,71,0.00,,,0.00,meteobridge,2014-01-07 02:56:00,
2014-01-06 22:01:00,-12.6,-19.3,30.18,SSW,204,0.9,4.9,71,0.00,,,0.00,meteobridge,2014-01-07 03:01:00,
2014-01-06 22:06:00,-12.6,-19.1,30.18,WSW,245,12.1,12.1,72,0.00,,,0.00,meteobridge,2014-01-07 03:06:00,
2014-01-06 22:11:00,-12.6,-19.1,30.18,South,172,2.9,4.0,72,0.00,,,0.00,meteobridge,2014-01-07 03:11:00,
2014-01-06 22:16:00,-12.6,-19.1,30.19,West,262,0.9,2.9,72,0.00,,,0.00,meteobridge,2014-01-07 03:16:00,
2014-01-06 22:21:00,-12.6,-18.8,30.19,NW,315,2.0,8.9,73,0.00,,,0.00,meteobridge,2014-01-07 03:21:00,
2014-01-06 22:26:00,-12.6,-19.1,30.19,WSW,243,8.9,8.9,72,0.00,,,0.00,meteobridge,2014-01-07 03:26:00,
2014-01-06 22:31:00,-12.6,-18.8,30.19,WNW,293,2.9,4.9,73,0.00,,,0.00,meteobridge,2014-01-07 03:31:00,
2014-01-06 22:36:00,-12.6,-18.8,30.19,SSW,205,4.0,4.9,73,0.00,,,0.00,meteobridge,2014-01-07 03:36:00,
2014-01-06 22:41:00,-12.6,-18.8,30.19,WSW,240,2.9,10.1,73,0.00,,,0.00,meteobridge,2014-01-07 03:41:00,
2014-01-06 22:46:00,-12.6,-18.8,30.19,SW,232,4.0,6.9,73,0.00,,,0.00,meteobridge,2014-01-07 03:46:00,
2014-01-06 22:51:00,-12.6,-18.8,30.19,West,280,2.9,8.9,73,0.00,,,0.00,meteobridge,2014-01-07 03:51:00,
2014-01-06 22:57:00,-12.6,-18.8,30.19,NW,311,0.0,8.9,73,0.00,,,0.00,meteobridge,2014-01-07 03:57:00,
2014-01-06 23:02:00,-12.6,-18.8,30.19,SSW,208,2.0,4.9,73,0.00,,,0.00,meteobridge,2014-01-07 04:02:00,
2014-01-06 23:07:00,-12.6,-19.1,30.19,SSW,194,6.9,10.1,72,0.00,,,0.00,meteobridge,2014-01-07 04:07:00,
2014-01-06 23:12:00,-12.6,-19.1,30.19,West,263,0.9,6.0,72,0.00,,,0.00,meteobridge,2014-01-07 04:12:00,
2014-01-06 23:17:00,-12.6,-18.8,30.19,SW,225,2.0,6.9,73,0.00,,,0.00,meteobridge,2014-01-07 04:17:00,
2014-01-06 23:22:00,-12.8,-18.9,30.19,WNW,288,6.9,11.0,73,0.00,,,0.00,meteobridge,2014-01-07 04:22:00,
2014-01-06 23:27:00,-12.8,-18.9,30.19,SSW,210,4.9,6.0,73,0.00,,,0.00,meteobridge,2014-01-07 04:27:00,
2014-01-06 23:32:00,-12.8,-18.9,30.19,North,351,4.9,6.9,73,0.00,,,0.00,meteobridge,2014-01-07 04:32:00,
2014-01-06 23:37:00,-12.6,-18.8,30.19,WSW,240,8.9,8.9,73,0.00,,,0.00,meteobridge,2014-01-07 04:37:00,
2014-01-06 23:42:00,-12.8,-18.9,30.19,SW,233,4.9,8.1,73,0.00,,,0.00,meteobridge,2014-01-07 04:42:00,
2014-01-06 23:47:00,-12.8,-18.9,30.19,WSW,255,2.9,4.9,73,0.00,,,0.00,meteobridge,2014-01-07 04:47:00,
2014-01-06 23:52:00,-12.6,-18.8,30.19,NW,308,2.9,8.9,73,0.00,,,0.00,meteobridge,2014-01-07 04:52:00,
2014-01-06 23:57:00,-12.6,-18.8,30.19,South,185,4.0,13.0,73,0.00,,,0.00,meteobridge,2014-01-07 04:57:00,